createdAt,value
2019-06-27T00:01:05.860Z,10.80
2019-06-27T00:03:34.704Z,8.15
2019-06-27T00:06:06.440Z,6.28
2019-06-27T00:08:35.336Z,6.78
2019-06-27T00:11:05.038Z,7.25
2019-06-27T00:13:33.775Z,6.28
2019-06-27T00:16:02.485Z,6.20
2019-06-27T00:18:31.259Z,6.97
2019-06-27T00:21:00.839Z,6.22
2019-06-27T00:23:29.704Z,5.40
2019-06-27T00:25:58.475Z,11.38
2019-06-27T00:28:27.262Z,7.87
2019-06-27T00:30:56.017Z,6.00
2019-06-27T00:33:24.898Z,5.35
2019-06-27T00:35:54.934Z,5.87
2019-06-27T00:38:23.883Z,4.83
2019-06-27T00:40:52.790Z,5.90
2019-06-27T00:43:21.734Z,7.50
2019-06-27T00:45:50.642Z,5.22
2019-06-27T00:48:19.522Z,6.65
2019-06-27T00:50:48.355Z,7.17
2019-06-27T00:53:17.203Z,6.08
2019-06-27T00:55:46.154Z,7.50
2019-06-27T00:58:15.208Z,7.12
2019-06-27T01:00:44.347Z,6.58
2019-06-27T01:03:13.230Z,6.60
2019-06-27T01:05:42.229Z,7.03
2019-06-27T01:08:11.042Z,7.22
2019-06-27T01:10:39.874Z,5.30
2019-06-27T01:13:08.762Z,7.33
2019-06-27T01:15:37.606Z,7.83
2019-06-27T01:18:06.962Z,10.15
2019-06-27T01:20:36.794Z,8.10
2019-06-27T01:23:05.938Z,9.35
2019-06-27T01:25:34.803Z,7.78
2019-06-27T01:28:03.706Z,10.68
2019-06-27T01:30:32.578Z,7.42
2019-06-27T01:33:01.504Z,6.53
2019-06-27T01:35:30.394Z,6.65
2019-06-27T01:37:59.250Z,9.43
2019-06-27T01:40:28.178Z,6.83
2019-06-27T01:42:57.286Z,6.75
2019-06-27T01:45:32.294Z,9.08
2019-06-27T01:48:01.222Z,6.97
2019-06-27T01:50:30.226Z,9.18
2019-06-27T01:52:59.160Z,6.03
2019-06-27T01:55:28.073Z,6.85
2019-06-27T01:57:56.925Z,8.53
2019-06-27T02:00:25.879Z,6.25
2019-06-27T02:03:01.430Z,6.22
2019-06-27T02:05:30.298Z,10.03
2019-06-27T02:07:59.242Z,7.72
2019-06-27T02:10:28.274Z,8.03
2019-06-27T02:12:57.718Z,11.78
2019-06-27T02:15:26.585Z,8.10
2019-06-27T02:17:55.563Z,8.40
2019-06-27T02:21:33.566Z,5.95
2019-06-27T02:24:02.723Z,10.72
2019-06-27T02:26:31.503Z,6.87
2019-06-27T02:29:00.262Z,16.55
2019-06-27T02:31:29.114Z,7.97
2019-06-27T02:33:57.908Z,5.70
2019-06-27T02:36:26.776Z,8.38
2019-06-27T02:38:55.605Z,8.25
2019-06-27T02:41:30.606Z,8.60
2019-06-27T02:43:59.417Z,5.37
2019-06-27T02:46:28.247Z,5.55
2019-06-27T02:49:00.610Z,5.20
2019-06-27T02:51:29.438Z,6.47
2019-06-27T02:53:58.597Z,4.85
2019-06-27T02:56:27.403Z,6.53
2019-06-27T02:58:56.237Z,6.08
2019-06-27T03:01:25.119Z,12.68
2019-06-27T03:03:54.010Z,6.37
2019-06-27T03:06:22.718Z,5.40
2019-06-27T03:08:51.498Z,9.38
2019-06-27T03:11:20.330Z,7.17
2019-06-27T03:13:49.266Z,7.72
2019-06-27T03:16:18.350Z,7.58
2019-06-27T03:18:47.277Z,6.70
2019-06-27T03:21:16.254Z,10.33
2019-06-27T03:23:45.229Z,6.58
2019-06-27T03:26:15.054Z,12.03
2019-06-27T03:28:53.289Z,6.17
2019-06-27T03:31:12.807Z,7.72
2019-06-27T03:33:42.228Z,9.53
2019-06-27T03:36:11.117Z,8.70
2019-06-27T03:38:40.412Z,8.40
2019-06-27T03:41:09.254Z,8.43
2019-06-27T03:43:38.893Z,7.60
2019-06-27T03:46:08.014Z,8.80
2019-06-27T03:48:36.926Z,8.65
2019-06-27T03:51:05.889Z,8.78
2019-06-27T03:53:34.781Z,12.35
2019-06-27T03:56:03.725Z,7.28
2019-06-27T03:58:32.765Z,10.20
2019-06-27T04:01:01.689Z,12.73
2019-06-27T04:03:30.717Z,9.98
2019-06-27T04:05:59.660Z,12.18
2019-06-27T04:08:29.164Z,11.63
2019-06-27T04:10:58.917Z,13.55
2019-06-27T04:13:27.823Z,8.25
2019-06-27T04:15:56.861Z,10.03
2019-06-27T04:18:26.425Z,7.90
2019-06-27T04:20:55.343Z,13.68
2019-06-27T04:23:24.878Z,8.63
2019-06-27T04:25:53.961Z,11.83
2019-06-27T04:28:22.906Z,15.40
2019-06-27T04:30:52.370Z,15.40
2019-06-27T04:33:21.409Z,9.43
2019-06-27T04:35:50.440Z,10.10
2019-06-27T04:38:19.104Z,10.80
2019-06-27T04:40:47.884Z,10.53
2019-06-27T04:43:16.587Z,8.85
2019-06-27T04:45:46.597Z,12.78
2019-06-27T04:48:15.360Z,10.10
2019-06-27T04:50:44.308Z,9.03
2019-06-27T04:53:13.029Z,9.70
2019-06-27T05:05:25.933Z,11.18
2019-06-27T05:11:08.568Z,8.38
2019-06-27T05:13:41.968Z,11.63
2019-06-27T05:16:11.060Z,9.75
2019-06-27T05:18:47.272Z,10.98
2019-06-27T05:21:16.444Z,8.18
2019-06-27T05:23:45.408Z,11.00
2019-06-27T05:26:14.529Z,9.43
2019-06-27T05:28:43.440Z,9.40
2019-06-27T05:31:12.880Z,10.60
2019-06-27T05:33:41.766Z,9.68
2019-06-27T05:36:10.820Z,9.95
2019-06-27T05:38:46.099Z,10.60
2019-06-27T05:41:15.691Z,8.07
2019-06-27T05:43:44.375Z,9.83
2019-06-27T05:46:13.243Z,10.32
2019-06-27T05:48:42.055Z,9.13
2019-06-27T05:51:10.959Z,7.75
2019-06-27T05:53:39.932Z,9.98
2019-06-27T05:56:08.845Z,11.38
2019-06-27T05:58:44.181Z,11.63
2019-06-27T06:01:12.915Z,8.28
2019-06-27T06:03:41.671Z,8.43
2019-06-27T06:06:10.907Z,7.28
2019-06-27T06:08:39.755Z,12.45
2019-06-27T06:11:08.523Z,7.17
2019-06-27T06:13:37.249Z,8.78
2019-06-27T06:16:06.012Z,5.87
2019-06-27T06:18:34.738Z,8.05
2019-06-27T06:21:03.489Z,8.05
2019-06-27T06:23:32.272Z,10.00
2019-06-27T06:26:01.083Z,6.28
2019-06-27T06:28:29.836Z,8.05
2019-06-27T06:30:58.575Z,6.87
2019-06-27T06:33:27.314Z,11.85
2019-06-27T06:35:56.030Z,5.97
2019-06-27T06:38:24.770Z,6.40
2019-06-27T06:40:53.539Z,8.10
2019-06-27T06:43:22.317Z,9.03
2019-06-27T06:45:51.439Z,7.62
2019-06-27T06:48:20.195Z,13.28
2019-06-27T06:50:48.966Z,8.78
2019-06-27T06:53:17.744Z,11.28
2019-06-27T06:55:46.454Z,9.38
2019-06-27T06:58:15.331Z,9.83
2019-06-27T07:00:59.940Z,8.73
2019-06-27T07:03:12.971Z,8.58
2019-06-27T07:05:42.026Z,6.75
2019-06-27T07:08:11.132Z,8.35
2019-06-27T07:10:39.878Z,9.00
2019-06-27T07:13:08.714Z,11.10
2019-06-27T07:15:37.399Z,10.80
2019-06-27T07:18:06.144Z,9.48
2019-06-27T07:20:34.878Z,6.62
2019-06-27T07:23:03.823Z,6.90
2019-06-27T07:25:32.966Z,6.53
2019-06-27T07:28:01.738Z,8.00
2019-06-27T07:30:30.642Z,8.00
2019-06-27T07:32:59.672Z,6.62
2019-06-27T07:35:28.506Z,5.22
2019-06-27T07:37:57.612Z,7.92
2019-06-27T07:40:26.715Z,6.92
2019-06-27T07:42:55.995Z,7.55
2019-06-27T07:45:24.725Z,4.60
2019-06-27T07:47:53.570Z,5.30
2019-06-27T07:50:22.418Z,4.45
2019-06-27T07:52:51.241Z,4.95
2019-06-27T07:55:20.138Z,4.22
2019-06-27T07:57:48.878Z,4.70
2019-06-27T08:00:17.813Z,4.30
2019-06-27T08:02:46.594Z,6.60
2019-06-27T08:05:15.549Z,7.30
2019-06-27T08:07:44.374Z,4.40
2019-06-27T08:10:13.386Z,7.00
2019-06-27T08:12:42.822Z,4.35
2019-06-27T08:15:11.456Z,6.97
2019-06-27T08:17:40.294Z,5.78
2019-06-27T08:20:09.229Z,6.72
2019-06-27T08:22:38.089Z,5.80
2019-06-27T08:25:07.090Z,4.70
2019-06-27T08:27:35.906Z,5.00
2019-06-27T08:30:08.207Z,5.35
2019-06-27T08:32:34.620Z,5.60
2019-06-27T08:35:03.889Z,5.12
2019-06-27T08:37:41.566Z,8.70
2019-06-27T08:40:15.721Z,4.54
2019-06-27T08:42:46.567Z,5.80
2019-06-27T08:45:28.980Z,4.93
2019-06-27T08:48:01.375Z,5.60
2019-06-27T08:50:31.902Z,6.25
2019-06-27T08:53:14.930Z,5.08
2019-06-27T09:25:03.484Z,3.85
2019-06-27T09:28:43.097Z,6.05
2019-06-27T09:34:07.302Z,6.67
2019-06-27T09:36:36.462Z,3.50
2019-06-27T09:39:05.950Z,4.67
2019-06-27T09:41:37.954Z,6.20
2019-06-27T09:44:08.406Z,7.10
2019-06-27T09:46:44.545Z,5.17
2019-06-27T09:49:17.425Z,4.43
2019-06-27T09:51:46.405Z,4.23
2019-06-27T09:54:16.458Z,7.22
2019-06-27T09:56:45.553Z,8.45
2019-06-27T09:59:14.461Z,6.03
2019-06-27T10:01:43.397Z,5.30
2019-06-27T10:04:12.491Z,4.65
2019-06-27T10:06:41.402Z,8.13
2019-06-27T10:09:10.340Z,8.03
2019-06-27T10:11:39.201Z,8.85
2019-06-27T10:14:08.036Z,6.28
2019-06-27T10:16:36.786Z,6.95
2019-06-27T10:19:05.593Z,3.77
2019-06-27T10:21:35.534Z,4.72
2019-06-27T10:24:12.720Z,7.32
2019-06-27T10:27:12.256Z,5.33
2019-06-27T10:29:45.755Z,6.80
2019-06-27T10:32:14.802Z,8.15
2019-06-27T10:34:43.618Z,7.37
2019-06-27T10:37:12.371Z,6.00
2019-06-27T10:39:41.151Z,5.87
2019-06-27T10:42:10.023Z,6.10
2019-06-27T10:44:38.809Z,5.17
2019-06-27T10:47:07.660Z,6.53
2019-06-27T10:49:36.385Z,6.65
2019-06-27T10:52:05.273Z,5.53
2019-06-27T10:54:34.072Z,3.83
2019-06-27T10:57:02.832Z,7.65
2019-06-27T10:59:31.715Z,5.53
2019-06-27T11:02:07.053Z,6.15
2019-06-27T11:04:35.824Z,8.98
2019-06-27T11:07:04.864Z,6.30
2019-06-27T11:09:33.693Z,6.42
2019-06-27T11:12:02.815Z,5.70
2019-06-27T11:14:31.272Z,6.08
2019-06-27T11:17:00.082Z,7.57
2019-06-27T11:19:28.900Z,11.25
2019-06-27T11:21:57.677Z,7.97
2019-06-27T11:24:26.452Z,7.58
2019-06-27T11:26:55.248Z,7.70
2019-06-27T11:29:24.061Z,7.78
2019-06-27T11:31:52.829Z,6.78
2019-06-27T11:34:21.999Z,11.38
2019-06-27T11:36:51.063Z,5.95
2019-06-27T11:39:23.161Z,10.78
2019-06-27T11:41:48.663Z,9.40
2019-06-27T11:44:17.523Z,8.80
2019-06-27T11:46:46.400Z,8.85
2019-06-27T11:49:15.195Z,12.95
2019-06-27T11:51:44.015Z,9.73
2019-06-27T11:54:12.831Z,11.63
2019-06-27T11:56:41.622Z,10.80
2019-06-27T11:59:10.699Z,8.38
2019-06-27T12:01:39.433Z,11.57
2019-06-27T12:04:08.267Z,7.30
2019-06-27T12:06:37.219Z,7.60
2019-06-27T12:09:06.242Z,7.60
2019-06-27T12:11:35.065Z,8.23
2019-06-27T12:14:04.190Z,6.72
2019-06-27T12:16:32.972Z,8.33
2019-06-27T12:19:01.863Z,6.17
2019-06-27T12:21:30.660Z,7.28
2019-06-27T12:23:59.412Z,6.42
2019-06-27T12:26:28.312Z,7.97
2019-06-27T12:28:57.129Z,7.62
2019-06-27T12:31:25.913Z,6.00
2019-06-27T12:34:06.257Z,6.75
2019-06-27T12:36:23.540Z,8.75
2019-06-27T12:38:52.908Z,9.53
2019-06-27T12:41:21.708Z,9.25
2019-06-27T12:43:50.519Z,12.13
2019-06-27T12:46:19.303Z,7.00
2019-06-27T12:48:48.208Z,4.70
2019-06-27T12:51:17.095Z,10.60
2019-06-27T12:53:45.979Z,6.70
2019-06-27T12:56:14.807Z,8.70
2019-06-27T12:58:43.569Z,6.03
2019-06-27T13:01:12.548Z,8.78
2019-06-27T13:03:41.703Z,7.75
2019-06-27T13:06:10.547Z,9.88
2019-06-27T13:08:39.408Z,10.70
2019-06-27T13:11:08.281Z,10.73
2019-06-27T13:13:37.297Z,9.15
2019-06-27T13:16:06.306Z,8.73
2019-06-27T13:18:35.087Z,14.78
2019-06-27T13:21:03.720Z,16.12
2019-06-27T13:23:32.669Z,12.90
2019-06-27T13:26:01.291Z,9.73
2019-06-27T13:28:30.050Z,11.30
2019-06-27T13:30:58.775Z,11.22
2019-06-27T13:33:27.467Z,13.03
2019-06-27T13:36:02.846Z,15.53
2019-06-27T13:38:31.576Z,11.83
2019-06-27T13:41:02.318Z,14.90
2019-06-27T13:43:29.299Z,14.50
2019-06-27T13:45:57.862Z,16.80
2019-06-27T13:48:28.843Z,14.25
2019-06-27T13:50:58.010Z,11.28
2019-06-27T13:53:26.454Z,9.00
2019-06-27T13:55:56.347Z,15.88
2019-06-27T13:58:25.359Z,13.95
2019-06-27T14:00:54.366Z,5.47
2019-06-27T14:03:23.403Z,5.10
2019-06-27T14:06:03.282Z,5.58
2019-06-27T14:08:33.498Z,7.22
2019-06-27T14:11:02.861Z,6.05
2019-06-27T14:13:32.196Z,13.48
2019-06-27T14:16:05.678Z,10.28
2019-06-27T14:18:31.256Z,8.58
2019-06-27T14:21:01.602Z,13.03
2019-06-27T14:23:30.518Z,11.90
2019-06-27T14:25:59.910Z,9.68
2019-06-27T14:28:29.066Z,10.20
2019-06-27T14:30:58.285Z,4.70
2019-06-27T14:33:27.944Z,5.50
2019-06-27T14:35:57.490Z,7.97
2019-06-27T14:38:26.116Z,10.65
2019-06-27T14:40:57.007Z,6.25
2019-06-27T14:59:14.392Z,9.00
2019-06-27T15:01:50.053Z,7.67
2019-06-27T15:04:18.914Z,5.78
2019-06-27T15:06:47.685Z,4.10
2019-06-27T15:09:16.458Z,3.17
2019-06-27T15:11:45.250Z,2.42
2019-06-27T15:14:14.051Z,3.67
2019-06-27T15:16:43.193Z,6.53
2019-06-27T15:19:11.968Z,2.47
2019-06-27T15:21:40.754Z,2.10
2019-06-27T15:24:09.606Z,4.28
2019-06-27T15:26:38.487Z,1.85
2019-06-27T15:29:07.394Z,6.45
2019-06-27T15:31:36.666Z,2.50
2019-06-27T15:34:05.478Z,3.33
2019-06-27T15:36:34.195Z,2.20
2019-06-27T15:39:02.988Z,2.50
2019-06-27T15:41:31.676Z,3.17
2019-06-27T15:44:01.451Z,2.72
2019-06-27T15:46:30.214Z,3.50
2019-06-27T15:48:58.907Z,2.37
2019-06-27T15:51:27.610Z,2.72
2019-06-27T15:53:56.238Z,5.08
2019-06-27T15:56:24.958Z,3.85
2019-06-27T15:58:53.626Z,6.47
2019-06-27T16:01:22.370Z,3.58
2019-06-27T16:03:51.142Z,2.87
2019-06-27T16:06:19.998Z,2.53
2019-06-27T16:08:48.680Z,3.08
2019-06-27T16:11:17.425Z,3.27
2019-06-27T16:13:46.141Z,2.90
2019-06-27T16:16:14.876Z,3.27
2019-06-27T16:18:43.600Z,3.35
2019-06-27T16:21:12.355Z,4.12
2019-06-27T16:23:41.081Z,2.45
2019-06-27T16:26:09.854Z,3.47
2019-06-27T16:28:38.616Z,2.52
2019-06-27T16:31:07.333Z,3.12
2019-06-27T16:33:36.082Z,3.27
2019-06-27T16:36:05.082Z,3.98
2019-06-27T16:38:33.792Z,4.72
2019-06-27T16:41:02.977Z,4.28
2019-06-27T16:43:31.946Z,4.20
2019-06-27T16:46:00.659Z,3.83
2019-06-27T16:48:29.614Z,3.67
2019-06-27T16:50:58.409Z,3.80
2019-06-27T16:53:27.119Z,5.08
2019-06-27T16:55:55.885Z,4.78
2019-06-27T16:58:24.653Z,4.37
2019-06-27T17:00:53.649Z,5.60
2019-06-27T17:03:22.734Z,6.85
2019-06-27T17:05:58.008Z,5.92
2019-06-27T17:08:26.817Z,3.10
2019-06-27T17:10:59.742Z,5.47
2019-06-27T17:13:28.489Z,5.28
2019-06-27T17:15:57.288Z,7.03
2019-06-27T17:18:26.093Z,4.65
2019-06-27T17:20:54.786Z,5.08
2019-06-27T17:23:23.492Z,6.42
2019-06-27T17:25:52.300Z,6.75
2019-06-27T17:28:21.051Z,8.75
2019-06-27T17:30:49.795Z,8.30
2019-06-27T17:33:18.457Z,5.35
2019-06-27T17:35:47.184Z,8.90
2019-06-27T17:38:15.905Z,8.80
2019-06-27T17:40:44.639Z,5.85
2019-06-27T17:43:13.480Z,7.40
2019-06-27T17:45:42.488Z,7.28
2019-06-27T17:48:11.219Z,8.33
2019-06-27T17:50:40.004Z,4.92
2019-06-27T17:53:09.368Z,10.90
2019-06-27T17:55:38.471Z,8.48
2019-06-27T17:58:07.536Z,4.85
2019-06-27T18:00:36.275Z,7.92
2019-06-27T18:03:05.117Z,8.75
2019-06-27T18:05:33.871Z,5.80
2019-06-27T18:08:02.483Z,8.55
2019-06-27T18:10:31.153Z,8.48
2019-06-27T18:13:00.122Z,10.48
2019-06-27T18:15:28.760Z,7.67
2019-06-27T18:17:57.451Z,9.50
2019-06-27T18:20:26.136Z,6.70
2019-06-27T18:22:54.835Z,9.63
2019-06-27T18:25:23.518Z,10.05
2019-06-27T18:27:52.748Z,7.40
2019-06-27T18:30:21.708Z,6.47
2019-06-27T18:32:50.452Z,6.58
2019-06-27T18:35:19.261Z,5.17
2019-06-27T18:37:48.036Z,9.63
2019-06-27T18:40:16.853Z,8.48
2019-06-27T18:42:45.506Z,8.28
2019-06-27T18:45:14.275Z,13.98
2019-06-27T18:47:42.898Z,7.80
2019-06-27T18:50:11.699Z,5.87
2019-06-27T18:52:40.752Z,8.25
2019-06-27T18:55:15.646Z,7.83
2019-06-27T18:57:44.262Z,9.13
2019-06-27T19:00:13.003Z,10.00
2019-06-27T19:02:41.645Z,7.78
2019-06-27T19:05:10.522Z,6.72
2019-06-27T19:07:45.427Z,7.40
2019-06-27T19:10:08.116Z,7.15
2019-06-27T19:12:36.770Z,8.33
2019-06-27T19:15:05.548Z,8.50
2019-06-27T19:17:34.350Z,5.85
2019-06-27T19:20:05.659Z,12.23
2019-06-27T19:22:39.552Z,10.00
2019-06-27T19:25:12.772Z,12.53
2019-06-27T19:27:41.784Z,13.28
2019-06-27T19:30:10.577Z,11.08
2019-06-27T19:32:39.288Z,11.57
2019-06-27T19:35:08.022Z,8.85
2019-06-27T19:37:36.723Z,12.37
2019-06-27T19:40:06.349Z,10.48
2019-06-27T19:42:35.104Z,13.35
2019-06-27T19:45:03.826Z,19.05
2019-06-27T19:47:32.771Z,19.82
2019-06-27T19:50:01.624Z,21.27
2019-06-27T19:52:30.754Z,19.75
2019-06-27T19:54:59.494Z,17.30
2019-06-27T19:57:28.258Z,16.67
2019-06-27T19:59:56.910Z,11.83
2019-06-27T20:02:25.694Z,16.48
2019-06-27T20:04:54.389Z,12.70
2019-06-27T20:07:23.156Z,9.13
2019-06-27T20:09:52.213Z,9.35
2019-06-27T20:12:20.936Z,10.55
2019-06-27T20:14:49.844Z,10.95
2019-06-27T20:17:18.548Z,7.55
2019-06-27T20:19:47.258Z,10.65
2019-06-27T20:22:15.926Z,11.68
2019-06-27T20:24:44.925Z,8.05
2019-06-27T20:27:13.659Z,9.25
2019-06-27T20:29:42.364Z,9.90
2019-06-27T20:32:10.994Z,9.00
2019-06-27T20:34:40.014Z,7.33
2019-06-27T20:37:08.704Z,9.80
2019-06-27T20:39:37.602Z,12.75
2019-06-27T20:42:06.356Z,15.05
2019-06-27T20:44:35.095Z,16.75
2019-06-27T20:47:03.822Z,21.12
2019-06-27T20:49:32.616Z,25.20
2019-06-27T20:52:01.560Z,12.58
2019-06-27T20:54:30.223Z,7.33
2019-06-27T20:56:58.903Z,7.10
2019-06-27T20:59:27.655Z,9.88
2019-06-27T21:01:56.366Z,8.78
2019-06-27T21:04:31.643Z,11.50
2019-06-27T21:07:00.314Z,6.05
2019-06-27T21:09:28.963Z,6.33
2019-06-27T21:11:57.804Z,12.55
2019-06-27T21:14:26.832Z,10.85
2019-06-27T21:16:55.783Z,12.70
2019-06-27T21:19:24.455Z,11.25
2019-06-27T21:21:53.164Z,10.10
2019-06-27T21:24:21.819Z,11.95
2019-06-27T21:26:50.636Z,8.58
2019-06-27T21:29:19.838Z,10.53
2019-06-27T21:31:48.635Z,11.33
2019-06-27T21:34:17.445Z,18.30
2019-06-27T21:36:46.286Z,25.40
2019-06-27T21:39:15.198Z,17.50
2019-06-27T21:41:44.800Z,13.55
2019-06-27T21:44:15.219Z,14.87
2019-06-27T21:46:47.280Z,19.48
2019-06-27T21:49:16.223Z,24.57
2019-06-27T21:51:45.107Z,21.20
2019-06-27T21:54:15.260Z,27.70
2019-06-27T21:56:44.111Z,29.37
2019-06-27T21:59:12.878Z,22.25
2019-06-27T22:01:41.704Z,25.43
2019-06-27T22:04:10.885Z,23.42
2019-06-27T22:06:39.706Z,19.98
2019-06-27T22:09:23.497Z,12.90
2019-06-27T22:11:37.312Z,16.40
2019-06-27T22:14:06.348Z,16.37
2019-06-27T22:16:35.294Z,14.83
2019-06-27T22:19:05.175Z,14.47
2019-06-27T22:21:34.124Z,14.47
2019-06-27T22:24:04.116Z,16.15
2019-06-27T22:26:32.953Z,11.15
2019-06-27T22:29:01.750Z,13.25
2019-06-27T22:31:30.829Z,10.75
2019-06-27T22:33:59.585Z,11.75
2019-06-27T22:36:28.380Z,9.95
2019-06-27T22:39:02.402Z,10.40
2019-06-27T22:41:36.326Z,10.30
2019-06-27T22:44:10.516Z,9.98
2019-06-27T22:46:44.401Z,9.20
2019-06-27T22:49:12.332Z,8.03
2019-06-27T22:51:45.345Z,11.05
2019-06-27T22:54:14.578Z,8.15
2019-06-27T22:56:43.429Z,10.23
2019-06-27T22:59:12.368Z,7.40
2019-06-27T23:01:41.246Z,7.75
2019-06-27T23:04:10.061Z,8.13
2019-06-27T23:06:38.832Z,6.08
2019-06-27T23:09:08.049Z,6.33
2019-06-27T23:11:36.777Z,7.58
2019-06-27T23:14:05.575Z,4.03
2019-06-27T23:16:34.377Z,5.45
2019-06-27T23:19:03.200Z,5.42
2019-06-27T23:21:32.425Z,3.87
2019-06-27T23:24:04.005Z,2.85
2019-06-27T23:26:32.707Z,3.17
2019-06-27T23:29:01.417Z,5.80
2019-06-27T23:31:30.249Z,3.67
2019-06-27T23:33:59.479Z,6.15
2019-06-27T23:36:28.289Z,4.03
2019-06-27T23:38:57.055Z,3.08
2019-06-27T23:41:26.105Z,4.25
2019-06-27T23:43:55.086Z,2.77
2019-06-27T23:46:29.099Z,4.70
2019-06-27T23:48:57.852Z,3.65
2019-06-27T23:51:33.527Z,4.12
2019-06-27T23:54:02.421Z,2.37
2019-06-27T23:56:31.163Z,2.72
2019-06-27T23:59:00.251Z,5.00
